createdAt,value
2022-11-29T00:03:07.772Z,27.55
2022-11-29T00:08:10.840Z,27.52
2022-11-29T00:13:13.756Z,26.50
2022-11-29T00:18:17.866Z,27.55
2022-11-29T00:23:20.636Z,27.10
2022-11-29T00:28:23.420Z,26.55
2022-11-29T00:33:27.805Z,28.00
2022-11-29T00:38:30.573Z,27.23
2022-11-29T00:43:33.468Z,28.52
2022-11-29T00:48:38.100Z,28.48
2022-11-29T00:53:41.367Z,29.05
2022-11-29T00:58:44.332Z,27.75
2022-11-29T01:03:48.435Z,28.20
2022-11-29T01:08:51.211Z,27.17
2022-11-29T01:13:57.226Z,28.30
2022-11-29T01:19:01.590Z,25.48
2022-11-29T01:24:04.639Z,26.88
2022-11-29T01:29:07.790Z,26.00
2022-11-29T01:34:12.574Z,26.88
2022-11-29T01:39:15.409Z,27.92
2022-11-29T01:44:55.520Z,26.85
2022-11-29T01:50:00.391Z,28.00
2022-11-29T01:55:06.756Z,25.45
2022-11-29T02:00:13.169Z,22.48
2022-11-29T02:05:19.616Z,23.67
2022-11-29T02:10:30.847Z,25.95
2022-11-29T02:15:42.530Z,26.63
2022-11-29T02:21:04.455Z,26.87
2022-11-29T02:26:26.818Z,20.10
2022-11-29T02:31:50.348Z,26.92
2022-11-29T02:37:11.678Z,27.25
2022-11-29T02:42:55.599Z,26.42
2022-11-29T02:48:15.482Z,25.75
2022-11-29T02:53:27.709Z,25.27
2022-11-29T02:58:37.841Z,26.23
2022-11-29T03:03:47.540Z,24.98
2022-11-29T03:09:00.644Z,25.15
2022-11-29T03:14:15.535Z,25.40
2022-11-29T03:19:36.036Z,26.65
2022-11-29T03:24:46.244Z,27.98
2022-11-29T03:29:55.175Z,30.35
2022-11-29T03:35:07.971Z,28.73
2022-11-29T03:45:24.688Z,29.75
2022-11-29T03:50:34.688Z,30.40
2022-11-29T03:55:53.547Z,28.17
2022-11-29T04:01:31.796Z,29.73
2022-11-29T04:06:48.524Z,32.05
2022-11-29T04:12:22.059Z,30.80
2022-11-29T04:17:43.524Z,31.58
2022-11-29T04:23:26.047Z,33.90
2022-11-29T04:29:09.648Z,32.38
2022-11-29T04:34:47.409Z,36.42
2022-11-29T04:40:02.906Z,35.17
2022-11-29T04:45:54.689Z,34.25
2022-11-29T04:51:09.996Z,33.65
2022-11-29T04:56:21.451Z,33.42
2022-11-29T05:01:34.009Z,32.60
2022-11-29T05:06:45.955Z,32.85
2022-11-29T05:11:58.838Z,34.20
2022-11-29T05:17:22.339Z,31.95
2022-11-29T05:22:32.645Z,33.33
2022-11-29T05:27:47.007Z,37.08
2022-11-29T05:32:58.550Z,36.10
2022-11-29T05:38:09.465Z,35.20
2022-11-29T05:43:26.167Z,38.25
2022-11-29T05:48:44.948Z,34.97
2022-11-29T05:53:58.471Z,33.38
2022-11-29T05:59:05.132Z,34.30
2022-11-29T06:04:17.133Z,37.55
2022-11-29T06:09:27.235Z,33.77
2022-11-29T06:14:59.092Z,32.72
2022-11-29T06:20:26.332Z,31.65
2022-11-29T06:25:47.068Z,30.13
2022-11-29T06:31:00.613Z,30.05
2022-11-29T06:36:16.884Z,30.08
2022-11-29T06:41:21.839Z,27.52
2022-11-29T06:46:35.350Z,29.67
2022-11-29T06:51:49.308Z,30.63
2022-11-29T06:57:01.280Z,30.38
2022-11-29T07:02:22.357Z,29.57
2022-11-29T07:07:27.274Z,25.35
2022-11-29T07:12:30.697Z,24.50
2022-11-29T07:17:44.396Z,26.63
2022-11-29T07:22:59.576Z,25.65
2022-11-29T07:28:12.361Z,25.42
2022-11-29T07:38:31.590Z,21.40
2022-11-29T07:43:46.597Z,18.77
2022-11-29T07:48:49.344Z,16.95
2022-11-29T07:53:53.904Z,17.27
2022-11-29T07:58:56.696Z,19.35
2022-11-29T08:03:59.621Z,19.88
2022-11-29T08:09:05.395Z,19.63
2022-11-29T08:14:08.126Z,20.85
2022-11-29T08:19:10.872Z,23.58
2022-11-29T08:24:15.035Z,24.90
2022-11-29T08:29:18.229Z,25.98
2022-11-29T08:34:21.438Z,28.75
2022-11-29T08:39:25.531Z,28.30
2022-11-29T08:44:28.427Z,25.45
2022-11-29T08:49:31.211Z,29.67
2022-11-29T08:54:35.727Z,29.25
2022-11-29T08:59:38.474Z,30.15
2022-11-29T09:04:41.246Z,30.92
2022-11-29T09:09:45.381Z,28.80
2022-11-29T09:14:48.164Z,27.75
2022-11-29T09:19:50.982Z,30.20
2022-11-29T09:24:55.071Z,30.58
2022-11-29T09:29:57.864Z,29.42
2022-11-29T09:35:00.618Z,30.98
2022-11-29T09:40:05.773Z,31.05
2022-11-29T09:45:11.822Z,31.85
2022-11-29T09:50:25.477Z,32.15
2022-11-29T09:55:48.382Z,28.58
2022-11-29T10:05:59.629Z,29.85
2022-11-29T10:11:14.763Z,27.73
2022-11-29T10:16:25.954Z,28.08
2022-11-29T10:21:35.835Z,27.73
2022-11-29T10:26:40.103Z,28.23
2022-11-29T10:31:49.181Z,27.77
2022-11-29T10:36:54.715Z,29.58
2022-11-29T10:42:03.762Z,28.48
2022-11-29T10:47:10.903Z,29.20
2022-11-29T10:52:20.519Z,27.88
2022-11-29T10:57:25.229Z,29.95
2022-11-29T11:02:28.632Z,27.35
2022-11-29T11:07:35.099Z,27.75
2022-11-29T11:12:39.305Z,26.83
2022-11-29T11:17:56.531Z,28.08
2022-11-29T11:23:02.112Z,30.27
2022-11-29T11:28:20.403Z,27.60
2022-11-29T11:33:27.012Z,26.95
2022-11-29T11:38:30.496Z,25.65
2022-11-29T11:43:35.711Z,26.75
2022-11-29T11:48:41.891Z,25.30
2022-11-29T11:53:52.126Z,25.30
2022-11-29T11:58:58.826Z,24.52
2022-11-29T12:04:06.771Z,25.85
2022-11-29T12:09:19.311Z,26.42
2022-11-29T12:14:34.111Z,27.10
2022-11-29T12:19:44.205Z,26.17
2022-11-29T12:24:56.080Z,25.40
2022-11-29T12:30:00.254Z,24.10
2022-11-29T12:35:35.025Z,24.67
2022-11-29T12:40:47.400Z,25.05
2022-11-29T12:45:58.526Z,25.23
2022-11-29T12:51:09.433Z,25.40
2022-11-29T12:56:16.942Z,26.83
2022-11-29T13:01:30.979Z,31.13
2022-11-29T13:06:40.427Z,33.17
2022-11-29T13:11:53.897Z,36.63
2022-11-29T13:17:02.151Z,33.00
2022-11-29T13:22:11.815Z,34.33
2022-11-29T13:27:18.776Z,25.73
2022-11-29T13:32:35.131Z,26.08
2022-11-29T13:37:48.366Z,23.02
2022-11-29T13:43:02.200Z,24.20
2022-11-29T13:48:27.850Z,20.27
2022-11-29T13:53:48.614Z,23.05
2022-11-29T13:58:54.713Z,22.50
2022-11-29T14:04:07.919Z,21.45
2022-11-29T14:09:26.881Z,25.50
2022-11-29T14:14:35.264Z,26.58
2022-11-29T14:19:39.435Z,27.63
2022-11-29T14:24:43.186Z,28.92
2022-11-29T14:29:54.555Z,26.17
2022-11-29T14:35:04.709Z,28.08
2022-11-29T14:40:21.858Z,26.05
2022-11-29T14:45:27.872Z,25.67
2022-11-29T14:50:37.504Z,27.33
2022-11-29T14:55:40.395Z,26.02
2022-11-29T15:01:09.859Z,24.45
2022-11-29T15:06:24.037Z,22.67
2022-11-29T15:11:43.078Z,23.63
2022-11-29T15:16:59.412Z,24.45
2022-11-29T15:22:11.697Z,24.10
2022-11-29T15:27:14.527Z,24.58
2022-11-29T15:32:23.391Z,25.45
2022-11-29T15:37:44.484Z,24.60
2022-11-29T15:42:50.748Z,22.85
2022-11-29T15:47:54.044Z,23.17
2022-11-29T15:53:02.058Z,22.38
2022-11-29T15:58:08.856Z,23.17
2022-11-29T16:03:20.930Z,20.98
2022-11-29T16:08:35.408Z,23.03
2022-11-29T16:13:40.381Z,23.73
2022-11-29T16:18:44.680Z,20.35
2022-11-29T16:23:49.196Z,18.73
2022-11-29T16:28:54.391Z,20.73
2022-11-29T16:33:57.746Z,20.80
2022-11-29T16:39:06.551Z,21.92
2022-11-29T16:44:45.446Z,19.50
2022-11-29T16:50:10.644Z,17.83
2022-11-29T16:55:13.772Z,18.75
2022-11-29T17:00:26.047Z,17.85
2022-11-29T17:05:30.359Z,18.40
2022-11-29T17:10:33.271Z,19.02
2022-11-29T17:15:36.096Z,18.92
2022-11-29T17:20:40.297Z,18.70
2022-11-29T17:25:43.132Z,21.02
2022-11-29T17:30:45.987Z,23.33
2022-11-29T17:35:50.138Z,20.77
2022-11-29T17:40:52.961Z,21.10
2022-11-29T17:45:55.769Z,20.48
2022-11-29T17:51:01.864Z,22.52
2022-11-29T17:56:06.204Z,20.42
2022-11-29T18:01:11.172Z,20.35
2022-11-29T18:06:17.428Z,19.98
2022-11-29T18:11:21.965Z,19.58
2022-11-29T18:16:26.623Z,19.73
2022-11-29T18:21:31.519Z,20.90
2022-11-29T18:26:36.200Z,20.42
2022-11-29T18:31:41.023Z,20.48
2022-11-29T18:36:47.358Z,19.50
2022-11-29T18:41:51.543Z,19.88
2022-11-29T18:46:54.374Z,20.25
2022-11-29T18:51:58.475Z,19.80
2022-11-29T18:57:01.332Z,18.48
2022-11-29T19:02:04.118Z,18.10
2022-11-29T19:07:08.271Z,15.80
2022-11-29T19:12:11.044Z,19.15
2022-11-29T19:17:13.805Z,16.50
2022-11-29T19:22:18.010Z,17.52
2022-11-29T19:27:21.235Z,18.50
2022-11-29T19:32:24.008Z,18.27
2022-11-29T19:37:28.206Z,17.50
2022-11-29T19:42:31.089Z,18.15
2022-11-29T19:47:33.894Z,17.65
2022-11-29T19:52:38.184Z,15.90
2022-11-29T19:57:40.993Z,17.30
2022-11-29T20:02:43.862Z,15.77
2022-11-29T20:07:48.125Z,14.95
2022-11-29T20:12:51.155Z,17.73
2022-11-29T20:17:54.349Z,18.98
2022-11-29T20:22:58.699Z,20.13
2022-11-29T20:28:01.480Z,20.92
2022-11-29T20:33:05.100Z,20.35
2022-11-29T20:38:19.964Z,21.70
2022-11-29T20:43:38.888Z,21.83
2022-11-29T20:48:42.136Z,22.67
2022-11-29T20:53:48.428Z,22.92
2022-11-29T20:58:51.388Z,20.90
2022-11-29T21:03:54.256Z,21.00
2022-11-29T21:08:58.474Z,20.20
2022-11-29T21:14:03.969Z,20.88
2022-11-29T21:19:07.279Z,20.55
2022-11-29T21:24:27.833Z,20.83
2022-11-29T21:29:31.225Z,22.02
2022-11-29T21:34:34.807Z,22.20
2022-11-29T21:39:39.236Z,21.33
2022-11-29T21:44:42.008Z,20.98
2022-11-29T21:49:46.282Z,21.92
2022-11-29T21:54:50.684Z,22.98
2022-11-29T21:59:53.747Z,22.52
2022-11-29T22:04:56.546Z,23.50
2022-11-29T22:10:08.557Z,23.45
2022-11-29T22:15:19.055Z,22.23
2022-11-29T22:20:24.390Z,23.15
2022-11-29T22:25:28.535Z,23.55
2022-11-29T22:30:31.276Z,25.00
2022-11-29T22:35:34.024Z,27.13
2022-11-29T22:40:38.304Z,26.55
2022-11-29T22:45:41.075Z,26.38
2022-11-29T22:50:43.841Z,26.40
2022-11-29T22:55:47.924Z,25.80
2022-11-29T23:00:50.728Z,27.15
2022-11-29T23:05:53.554Z,27.17
2022-11-29T23:10:58.236Z,25.55
2022-11-29T23:16:01.595Z,26.92
2022-11-29T23:21:07.319Z,26.08
2022-11-29T23:26:18.427Z,26.63
2022-11-29T23:31:22.465Z,28.48
2022-11-29T23:36:25.242Z,28.73
2022-11-29T23:41:29.325Z,27.98
2022-11-29T23:46:32.160Z,29.58
2022-11-29T23:51:34.947Z,30.08
2022-11-29T23:56:39.083Z,28.60
